Time;durP1;ratioP1;P1;durP2;ratioP2;P2;SDS_P1;SDS_P2;PMS_P1;PMS_P2;Temp;Humidity;BMP_temperature;BMP_pressure;BME280_temperature;BME280_humidity;BME280_pressure;Samples;Min_cycle;Max_cycle;Signal;HPM_P1;HPM_P2
2020/12/02 00:00:29;;;;;;;114.82;39.53;;;;;;;;;;8273427;28;20115;-76
2020/12/02 00:04:35;;;;;;;176.32;52.42;;;;;;;;;;8271718;28;20057;-77
2020/12/02 00:08:42;;;;;;;115.35;39.72;;;;;;;;;;8271747;28;20056;-76
2020/12/02 00:12:45;;;;;;;112.93;40.72;;;;;;;;;;8273788;28;20410;-76
2020/12/02 00:16:48;;;;;;;137.35;41.30;;;;;;;;;;8271138;28;20475;-76
2020/12/02 00:20:51;;;;;;;133.95;47.72;;;;;;;;;;8269524;28;20376;-77
2020/12/02 00:24:55;;;;;;;140.13;42.10;;;;;;;;;;8270232;28;20498;-77
2020/12/02 00:28:58;;;;;;;109.97;41.53;;;;;;;;;;8268577;28;20471;-76
2020/12/02 00:33:20;;;;;;;151.95;45.65;;;;;;;;;;8268528;28;20463;-76
2020/12/02 00:37:25;;;;;;;196.35;52.33;;;;;;;;;;8267444;28;20134;-76
2020/12/02 00:41:28;;;;;;;143.15;48.38;;;;;;;;;;8266550;28;20478;-76
2020/12/02 00:45:31;;;;;;;127.32;41.97;;;;;;;;;;8266926;28;20585;-77
2020/12/02 00:49:34;;;;;;;114.85;40.90;;;;;;;;;;8266935;28;20384;-76
2020/12/02 00:53:37;;;;;;;173.45;68.85;;;;;;;;;;8265060;28;20084;-76
2020/12/02 00:57:41;;;;;;;114.72;42.22;;;;;;;;;;8263499;28;20472;-76
2020/12/02 01:02:16;;;;;;;251.05;97.50;;;;;;;;;;8263968;28;20353;-76
2020/12/02 01:06:19;;;;;;;153.63;58.17;;;;;;;;;;8237281;28;20376;-75
2020/12/02 01:10:22;;;;;;;94.60;37.15;;;;;;;;;;8262136;28;20375;-75
2020/12/02 01:14:26;;;;;;;153.18;59.85;;;;;;;;;;8261230;28;20505;-76
2020/12/02 01:18:28;;;;;;;134.88;51.25;;;;;;;;;;8261788;28;20407;-76
2020/12/02 01:22:39;;;;;;;117.57;45.33;;;;;;;;;;8262941;28;20455;-76
2020/12/02 01:26:49;;;;;;;101.80;40.50;;;;;;;;;;8260613;28;20379;-76
2020/12/02 01:30:52;;;;;;;109.57;38.78;;;;;;;;;;8259337;28;20057;-76
2020/12/02 01:34:55;;;;;;;105.82;38.28;;;;;;;;;;8261090;28;20370;-76
2020/12/02 01:39:00;;;;;;;94.97;39.33;;;;;;;;;;8259252;28;20460;-76
2020/12/02 01:43:08;;;;;;;97.45;35.85;;;;;;;;;;8258760;28;20112;-76
2020/12/02 01:47:57;;;;;;;114.97;48.43;;;;;;;;;;8260179;28;20502;-76
2020/12/02 01:52:11;;;;;;;88.47;35.97;;;;;;;;;;8257731;28;20049;-76
2020/12/02 01:56:37;;;;;;;95.00;38.35;;;;;;;;;;8260249;28;20479;-76
2020/12/02 02:00:43;;;;;;;74.20;29.63;;;;;;;;;;8258280;28;20080;-76
2020/12/02 02:05:04;;;;;;;106.05;35.85;;;;;;;;;;8258481;28;20410;-76
2020/12/02 02:09:10;;;;;;;72.70;31.85;;;;;;;;;;8257622;28;20371;-76
2020/12/02 02:13:58;;;;;;;101.68;36.22;;;;;;;;;;8258449;28;20379;-76
2020/12/02 02:18:13;;;;;;;67.05;28.15;;;;;;;;;;8258486;28;20468;-76
2020/12/02 02:22:17;;;;;;;88.28;31.52;;;;;;;;;;8271507;28;20075;-76
2020/12/02 02:26:45;;;;;;;81.38;32.97;;;;;;;;;;8259100;28;20510;-76
2020/12/02 02:30:50;;;;;;;83.75;30.35;;;;;;;;;;8263223;28;20356;-76
2020/12/02 02:34:57;;;;;;;70.45;28.63;;;;;;;;;;8262103;28;20574;-76
2020/12/02 02:39:01;;;;;;;65.57;25.88;;;;;;;;;;8262800;28;20079;-76
2020/12/02 02:43:05;;;;;;;61.55;26.73;;;;;;;;;;8260673;28;20410;-76
2020/12/02 02:47:08;;;;;;;75.72;30.25;;;;;;;;;;8261011;28;20500;-76
2020/12/02 02:51:11;;;;;;;67.18;28.13;;;;;;;;;;8262262;28;20467;-76
2020/12/02 02:55:26;;;;;;;80.05;29.00;;;;;;;;;;8261801;28;20506;-76
2020/12/02 02:59:29;;;;;;;70.30;26.40;;;;;;;;;;8261254;28;20459;-76
2020/12/02 03:03:32;;;;;;;67.80;27.42;;;;;;;;;;8260388;28;20391;-76
2020/12/02 03:07:35;;;;;;;57.58;24.13;;;;;;;;;;8260889;28;20471;-76
2020/12/02 03:11:39;;;;;;;70.45;26.25;;;;;;;;;;8260619;28;20399;-76
2020/12/02 03:15:43;;;;;;;94.47;33.65;;;;;;;;;;8259538;28;20403;-76
2020/12/02 03:20:02;;;;;;;77.30;29.52;;;;;;;;;;8259078;28;20379;-76
2020/12/02 03:24:08;;;;;;;85.35;31.55;;;;;;;;;;8258750;28;20487;-76
2020/12/02 03:28:12;;;;;;;92.10;31.48;;;;;;;;;;8274646;28;20479;-76
2020/12/02 03:32:15;;;;;;;69.70;26.48;;;;;;;;;;8259080;28;20052;-76
2020/12/02 03:36:20;;;;;;;69.05;25.63;;;;;;;;;;8241680;28;20448;-76
2020/12/02 03:40:23;;;;;;;72.55;25.65;;;;;;;;;;8258138;28;20498;-76
2020/12/02 03:44:27;;;;;;;66.50;23.63;;;;;;;;;;8259383;28;20048;-76
2020/12/02 03:48:29;;;;;;;83.35;25.55;;;;;;;;;;8259304;28;20404;-76
2020/12/02 03:52:32;;;;;;;63.10;25.05;;;;;;;;;;8259154;28;20456;-76
2020/12/02 03:56:35;;;;;;;73.70;27.02;;;;;;;;;;8259448;28;20459;-76
2020/12/02 04:00:38;;;;;;;65.93;24.45;;;;;;;;;;8258973;28;20475;-76
2020/12/02 04:04:40;;;;;;;66.63;24.58;;;;;;;;;;8258549;28;20053;-76
2020/12/02 04:08:44;;;;;;;74.22;24.52;;;;;;;;;;8258971;28;20072;-76
2020/12/02 04:12:47;;;;;;;70.82;26.15;;;;;;;;;;8256711;28;20384;-76
2020/12/02 04:16:50;;;;;;;79.50;27.23;;;;;;;;;;8257911;28;20049;-76
2020/12/02 04:20:53;;;;;;;73.18;25.92;;;;;;;;;;8258428;28;20497;-76
2020/12/02 04:24:56;;;;;;;83.97;30.23;;;;;;;;;;8258114;28;20418;-76
2020/12/02 04:28:59;;;;;;;73.55;27.75;;;;;;;;;;8258204;28;20367;-76
2020/12/02 04:33:02;;;;;;;72.47;26.50;;;;;;;;;;8176673;28;20382;-76
2020/12/02 04:37:05;;;;;;;69.72;26.77;;;;;;;;;;8259771;28;20075;-76
2020/12/02 04:41:13;;;;;;;72.90;27.63;;;;;;;;;;8230874;28;20368;-76
2020/12/02 04:45:18;;;;;;;62.77;25.23;;;;;;;;;;8253246;28;20064;-76
2020/12/02 04:49:31;;;;;;;78.13;27.63;;;;;;;;;;8250729;28;20075;-76
2020/12/02 04:53:38;;;;;;;67.65;25.33;;;;;;;;;;8250894;28;20407;-76
2020/12/02 04:57:42;;;;;;;70.47;26.20;;;;;;;;;;8253414;28;20383;-76
2020/12/02 05:01:51;;;;;;;66.25;25.73;;;;;;;;;;8254567;28;20395;-76
2020/12/02 05:06:02;;;;;;;65.05;25.23;;;;;;;;;;8253924;28;20363;-76
2020/12/02 05:10:15;;;;;;;70.55;25.90;;;;;;;;;;8252905;28;20356;-76
2020/12/02 05:14:39;;;;;;;60.03;24.15;;;;;;;;;;8250479;28;20464;-77
2020/12/02 05:18:42;;;;;;;61.13;24.05;;;;;;;;;;8253402;28;20076;-76
2020/12/02 05:22:51;;;;;;;54.50;20.58;;;;;;;;;;8223534;28;20041;-76
2020/12/02 05:27:03;;;;;;;63.20;24.17;;;;;;;;;;8255691;28;20344;-75
2020/12/02 05:31:13;;;;;;;58.20;22.80;;;;;;;;;;8257303;28;20383;-75
2020/12/02 05:35:34;;;;;;;60.45;25.08;;;;;;;;;;8255178;28;20415;-76
2020/12/02 05:39:53;;;;;;;62.90;25.13;;;;;;;;;;8255376;28;20379;-76
2020/12/02 05:44:37;;;;;;;64.78;23.77;;;;;;;;;;8255183;28;20052;-76
2020/12/02 05:48:42;;;;;;;66.07;24.27;;;;;;;;;;8249539;28;20072;-76
2020/12/02 05:52:49;;;;;;;58.47;23.02;;;;;;;;;;8226304;28;20041;-76
2020/12/02 05:56:52;;;;;;;64.57;24.92;;;;;;;;;;8182812;28;20404;-76
2020/12/02 06:00:56;;;;;;;60.30;24.55;;;;;;;;;;8266577;28;20382;-75
2020/12/02 06:04:59;;;;;;;58.58;22.63;;;;;;;;;;8262833;28;20472;-75
2020/12/02 06:09:02;;;;;;;62.92;23.83;;;;;;;;;;8262080;28;20514;-76
2020/12/02 06:13:05;;;;;;;43.58;20.00;;;;;;;;;;8262388;28;20463;-75
2020/12/02 06:17:14;;;;;;;50.53;20.13;;;;;;;;;;8261350;28;20403;-76
2020/12/02 06:21:39;;;;;;;44.00;19.98;;;;;;;;;;8262507;28;20414;-76
2020/12/02 06:25:56;;;;;;;55.50;22.13;;;;;;;;;;8261949;28;20451;-76
2020/12/02 06:30:13;;;;;;;53.03;22.10;;;;;;;;;;8261657;28;20529;-76
2020/12/02 06:34:27;;;;;;;52.55;21.20;;;;;;;;;;8260594;28;20414;-76
2020/12/02 06:38:32;;;;;;;47.88;19.13;;;;;;;;;;8261000;28;20584;-75
2020/12/02 06:42:43;;;;;;;54.63;20.25;;;;;;;;;;8261779;28;20475;-75
2020/12/02 06:46:55;;;;;;;56.92;21.95;;;;;;;;;;8261368;28;20486;-75
2020/12/02 06:51:00;;;;;;;51.67;22.33;;;;;;;;;;8261267;28;20371;-76
2020/12/02 06:55:28;;;;;;;44.88;20.00;;;;;;;;;;8243587;28;20448;-75
2020/12/02 06:59:32;;;;;;;41.20;18.92;;;;;;;;;;8261286;28;20578;-75
2020/12/02 07:03:46;;;;;;;44.13;18.67;;;;;;;;;;8260913;28;20357;-75
2020/12/02 07:08:19;;;;;;;46.47;18.98;;;;;;;;;;8243078;28;20053;-75
2020/12/02 07:12:28;;;;;;;48.25;19.65;;;;;;;;;;8258414;28;20053;-75
2020/12/02 07:16:36;;;;;;;41.58;17.80;;;;;;;;;;8261023;28;20076;-76
2020/12/02 07:20:51;;;;;;;44.40;19.10;;;;;;;;;;8207762;28;20502;-76
2020/12/02 07:25:08;;;;;;;53.83;19.83;;;;;;;;;;8224001;28;20473;-75
2020/12/02 07:29:22;;;;;;;47.50;20.13;;;;;;;;;;8191714;28;20484;-75
2020/12/02 07:33:38;;;;;;;48.47;20.23;;;;;;;;;;8193339;28;20350;-75
2020/12/02 07:37:44;;;;;;;42.17;19.65;;;;;;;;;;8191808;28;20468;-75
2020/12/02 07:42:15;;;;;;;46.22;19.10;;;;;;;;;;8175614;28;20467;-75
2020/12/02 07:46:21;;;;;;;44.35;20.10;;;;;;;;;;8190173;28;20353;-75
2020/12/02 07:51:17;;;;;;;41.03;17.33;;;;;;;;;;8206196;28;20494;-75
2020/12/02 07:56:04;;;;;;;41.15;17.02;;;;;;;;;;8066554;28;20487;-75
2020/12/02 08:00:20;;;;;;;41.00;17.00;;;;;;;;;;8142749;28;20373;-75
2020/12/02 08:04:58;;;;;;;43.08;15.90;;;;;;;;;;8126588;28;20525;-75
2020/12/02 08:09:05;;;;;;;43.22;17.60;;;;;;;;;;8158225;28;20109;-75
2020/12/02 08:13:19;;;;;;;33.95;16.00;;;;;;;;;;8141358;28;20058;-75
2020/12/02 08:17:27;;;;;;;32.92;15.43;;;;;;;;;;8126087;28;20458;-75
2020/12/02 08:21:32;;;;;;;37.47;14.55;;;;;;;;;;8109311;28;20473;-75
2020/12/02 08:25:56;;;;;;;39.20;16.85;;;;;;;;;;8053231;28;20500;-75
2020/12/02 08:30:29;;;;;;;39.03;17.13;;;;;;;;;;8083701;29;20487;-75
2020/12/02 08:34:40;;;;;;;30.90;14.52;;;;;;;;;;8093671;29;20839;-75
2020/12/02 08:38:54;;;;;;;38.50;15.88;;;;;;;;;;8078194;28;20071;-75
2020/12/02 08:43:26;;;;;;;35.47;14.60;;;;;;;;;;8093749;29;20054;-75
2020/12/02 08:47:55;;;;;;;31.77;15.48;;;;;;;;;;8048602;29;20077;-75
2020/12/02 08:52:02;;;;;;;32.17;13.77;;;;;;;;;;8093602;29;20055;-75
2020/12/02 08:56:35;;;;;;;37.05;14.65;;;;;;;;;;8108261;28;20386;-75
2020/12/02 09:00:42;;;;;;;30.88;14.50;;;;;;;;;;8129246;28;20491;-75
2020/12/02 09:04:46;;;;;;;34.38;16.00;;;;;;;;;;8172876;28;20350;-75
2020/12/02 09:08:55;;;;;;;31.25;15.27;;;;;;;;;;8233095;28;20430;-76
2020/12/02 09:13:02;;;;;;;34.60;14.85;;;;;;;;;;8257439;28;20075;-75
2020/12/02 09:17:13;;;;;;;30.45;15.10;;;;;;;;;;8257433;28;20476;-75
2020/12/02 09:21:17;;;;;;;33.03;13.93;;;;;;;;;;8240062;28;20472;-76
2020/12/02 09:25:23;;;;;;;35.30;16.33;;;;;;;;;;8257015;28;20475;-76
2020/12/02 09:29:28;;;;;;;38.53;15.57;;;;;;;;;;8239764;28;20352;-76
2020/12/02 09:33:33;;;;;;;33.22;16.25;;;;;;;;;;8203990;28;20406;-75
2020/12/02 09:37:37;;;;;;;170.20;65.97;;;;;;;;;;8244553;28;20379;-75
2020/12/02 09:41:57;;;;;;;474.20;194.23;;;;;;;;;;8263447;28;20486;-75
2020/12/02 09:46:20;;;;;;;1824.68;629.80;;;;;;;;;;8261594;28;20063;-76
2020/12/02 09:50:24;;;;;;;229.95;73.63;;;;;;;;;;8263302;28;20108;-76
2020/12/02 09:54:29;;;;;;;541.58;149.48;;;;;;;;;;8277617;28;20071;-75
2020/12/02 09:58:36;;;;;;;1082.80;306.13;;;;;;;;;;8260987;28;20501;-76
2020/12/02 10:03:13;;;;;;;964.45;270.73;;;;;;;;;;8260879;28;20483;-76
2020/12/02 10:07:35;;;;;;;419.92;89.85;;;;;;;;;;8228587;28;20492;-76
2020/12/02 10:12:33;;;;;;;260.50;54.70;;;;;;;;;;8262228;28;20486;-76
2020/12/02 10:17:33;;;;;;;65.07;30.40;;;;;;;;;;8263138;28;20388;-77
2020/12/02 10:21:48;;;;;;;216.07;52.92;;;;;;;;;;8145185;28;20388;-77
2020/12/02 10:26:52;;;;;;;1757.90;454.00;;;;;;;;;;8214872;28;20391;-77
2020/12/02 10:31:22;;;;;;;78.30;38.75;;;;;;;;;;8262123;28;20361;-77
2020/12/02 10:35:28;;;;;;;37.03;17.63;;;;;;;;;;8262498;28;20479;-77
2020/12/02 10:39:35;;;;;;;115.95;36.42;;;;;;;;;;8262499;28;20375;-77
2020/12/02 10:43:54;;;;;;;50.88;21.75;;;;;;;;;;8262250;28;20476;-76
2020/12/02 10:48:21;;;;;;;63.20;25.80;;;;;;;;;;8260087;28;20454;-77
2020/12/02 10:52:29;;;;;;;90.03;34.38;;;;;;;;;;8260429;28;20472;-77
2020/12/02 10:56:36;;;;;;;71.50;28.58;;;;;;;;;;8260827;28;20372;-76
2020/12/02 11:00:42;;;;;;;55.38;26.40;;;;;;;;;;8261320;28;20361;-76
2020/12/02 11:04:51;;;;;;;41.13;20.45;;;;;;;;;;8259442;28;20041;-76
2020/12/02 11:09:17;;;;;;;39.25;17.92;;;;;;;;;;8259186;28;20349;-77
2020/12/02 11:13:54;;;;;;;37.72;18.48;;;;;;;;;;8260231;28;20373;-77
2020/12/02 11:18:22;;;;;;;40.78;20.63;;;;;;;;;;8260791;28;20049;-76
2020/12/02 11:23:07;;;;;;;31.55;17.23;;;;;;;;;;8260143;28;20383;-77
2020/12/02 11:27:17;;;;;;;42.42;22.73;;;;;;;;;;8261111;28;20487;-77
2020/12/02 11:32:29;;;;;;;37.00;17.73;;;;;;;;;;8242337;28;20471;-76
2020/12/02 11:37:05;;;;;;;54.70;22.98;;;;;;;;;;8273471;28;20415;-76
2020/12/02 11:41:19;;;;;;;28.63;14.55;;;;;;;;;;8258822;28;20698;-77
2020/12/02 11:45:36;;;;;;;37.25;16.63;;;;;;;;;;8258987;28;20071;-77
2020/12/02 11:49:52;;;;;;;57.65;23.42;;;;;;;;;;8258611;28;20075;-76
2020/12/02 11:54:07;;;;;;;70.95;34.30;;;;;;;;;;8258736;28;20472;-76
2020/12/02 11:58:13;;;;;;;37.28;19.20;;;;;;;;;;8223909;28;20053;-76
2020/12/02 12:02:49;;;;;;;155.55;54.42;;;;;;;;;;8257653;28;20380;-76
2020/12/02 12:06:55;;;;;;;129.18;43.80;;;;;;;;;;8259008;28;20388;-75
2020/12/02 12:11:35;;;;;;;44.15;20.52;;;;;;;;;;8258571;28;20395;-75
2020/12/02 12:15:45;;;;;;;37.63;16.38;;;;;;;;;;8272363;28;20064;-75
2020/12/02 12:20:01;;;;;;;53.28;23.17;;;;;;;;;;8267746;28;20529;-75
2020/12/02 12:24:13;;;;;;;214.45;73.22;;;;;;;;;;8280107;28;20053;-75
2020/12/02 12:28:26;;;;;;;95.07;37.10;;;;;;;;;;8261173;28;20362;-75
2020/12/02 12:32:59;;;;;;;79.45;31.17;;;;;;;;;;8290792;28;20401;-75
2020/12/02 12:37:06;;;;;;;32.67;15.30;;;;;;;;;;8288943;28;20459;-75
2020/12/02 12:41:48;;;;;;;271.23;88.60;;;;;;;;;;8289079;28;20110;-75
2020/12/02 12:46:05;;;;;;;124.15;42.80;;;;;;;;;;8289045;28;20409;-75
2020/12/02 12:50:12;;;;;;;47.35;21.58;;;;;;;;;;8288509;28;20434;-74
2020/12/02 12:54:35;;;;;;;380.23;128.90;;;;;;;;;;8259315;28;20498;-75
2020/12/02 12:58:40;;;;;;;45.17;21.98;;;;;;;;;;8256984;28;20474;-75
2020/12/02 13:02:43;;;;;;;87.28;35.58;;;;;;;;;;8257814;28;20411;-75
2020/12/02 13:07:11;;;;;;;64.18;28.60;;;;;;;;;;8255916;28;20484;-75
2020/12/02 13:11:56;;;;;;;60.03;26.77;;;;;;;;;;8256538;28;20491;-75
2020/12/02 13:16:19;;;;;;;52.55;21.55;;;;;;;;;;8235750;28;20448;-75
2020/12/02 13:20:35;;;;;;;129.55;38.78;;;;;;;;;;8255154;28;20487;-75
2020/12/02 13:25:05;;;;;;;285.30;76.97;;;;;;;;;;8255155;28;20456;-75
2020/12/02 13:29:38;;;;;;;87.22;35.25;;;;;;;;;;8257226;28;20391;-76
2020/12/02 13:33:44;;;;;;;57.33;24.88;;;;;;;;;;8257134;28;20487;-75
2020/12/02 13:38:00;;;;;;;59.75;24.52;;;;;;;;;;8256687;28;20254;-76
2020/12/02 13:42:05;;;;;;;71.85;30.00;;;;;;;;;;8259569;28;20412;-76
2020/12/02 13:46:11;;;;;;;42.90;18.88;;;;;;;;;;8239545;28;20492;-76
2020/12/02 13:50:28;;;;;;;42.03;19.10;;;;;;;;;;8221789;28;20460;-75
2020/12/02 13:54:49;;;;;;;55.67;28.42;;;;;;;;;;8203564;28;20484;-75
2020/12/02 13:59:32;;;;;;;54.63;24.17;;;;;;;;;;8219551;28;20045;-75
2020/12/02 14:04:06;;;;;;;40.33;21.38;;;;;;;;;;8219138;28;20369;-76
2020/12/02 14:08:09;;;;;;;41.95;21.30;;;;;;;;;;8219101;28;20061;-75
2020/12/02 14:12:26;;;;;;;41.75;19.98;;;;;;;;;;8219107;28;20387;-75
2020/12/02 14:16:29;;;;;;;44.30;21.15;;;;;;;;;;8238831;28;20056;-75
2020/12/02 14:20:36;;;;;;;43.53;19.25;;;;;;;;;;8255507;28;20098;-75
2020/12/02 14:24:43;;;;;;;35.03;17.88;;;;;;;;;;8262389;28;20390;-76
2020/12/02 14:28:46;;;;;;;35.70;17.52;;;;;;;;;;8261716;28;20415;-76
2020/12/02 14:32:51;;;;;;;43.88;18.15;;;;;;;;;;8262369;28;20403;-75
2020/12/02 14:36:54;;;;;;;41.42;19.08;;;;;;;;;;8262403;28;20562;-75
2020/12/02 14:40:58;;;;;;;524.13;189.57;;;;;;;;;;8260526;28;20464;-75
2020/12/02 14:45:07;;;;;;;107.13;46.45;;;;;;;;;;8260683;28;20388;-76
2020/12/02 14:49:10;;;;;;;140.32;46.40;;;;;;;;;;8260057;28;20056;-75
2020/12/02 14:53:14;;;;;;;49.38;22.27;;;;;;;;;;8258381;28;20352;-75
2020/12/02 14:57:20;;;;;;;79.13;37.28;;;;;;;;;;8260307;28;20063;-75
2020/12/02 15:01:23;;;;;;;100.15;39.83;;;;;;;;;;8260662;28;20407;-75
2020/12/02 15:05:31;;;;;;;48.88;22.23;;;;;;;;;;8260078;28;20479;-75
2020/12/02 15:10:03;;;;;;;197.85;59.05;;;;;;;;;;8225796;28;20052;-75
2020/12/02 15:14:10;;;;;;;123.43;38.03;;;;;;;;;;8260546;28;20493;-76
2020/12/02 15:18:16;;;;;;;264.95;72.10;;;;;;;;;;8258957;28;20572;-75
2020/12/02 15:22:24;;;;;;;204.77;51.85;;;;;;;;;;8252758;28;20499;-75
2020/12/02 15:26:27;;;;;;;84.93;30.02;;;;;;;;;;8259202;28;20045;-76
2020/12/02 15:30:33;;;;;;;49.78;21.23;;;;;;;;;;8259566;28;20472;-75
2020/12/02 15:34:36;;;;;;;103.60;36.83;;;;;;;;;;8256082;28;20489;-75
2020/12/02 15:39:11;;;;;;;163.05;47.50;;;;;;;;;;8258387;28;20506;-75
2020/12/02 15:43:35;;;;;;;84.15;29.40;;;;;;;;;;8256548;28;20419;-75
2020/12/02 15:47:42;;;;;;;130.02;40.13;;;;;;;;;;8256526;28;20076;-76
2020/12/02 15:52:15;;;;;;;152.27;43.08;;;;;;;;;;8257715;28;20045;-76
2020/12/02 15:56:40;;;;;;;154.40;49.15;;;;;;;;;;8221759;28;20068;-75
2020/12/02 16:00:48;;;;;;;97.75;41.88;;;;;;;;;;8255992;28;20052;-76
2020/12/02 16:04:51;;;;;;;44.50;19.52;;;;;;;;;;8258161;28;20057;-76
2020/12/02 16:08:54;;;;;;;46.45;19.65;;;;;;;;;;8258293;28;20380;-76
2020/12/02 16:12:57;;;;;;;50.97;24.35;;;;;;;;;;8256395;28;20475;-76
2020/12/02 16:17:00;;;;;;;45.63;23.42;;;;;;;;;;8259926;28;20138;-76
2020/12/02 16:21:30;;;;;;;48.03;23.92;;;;;;;;;;8254661;28;20659;-75
2020/12/02 16:25:34;;;;;;;45.58;22.55;;;;;;;;;;8261899;28;20360;-76
2020/12/02 16:29:37;;;;;;;58.28;25.35;;;;;;;;;;8282666;28;20378;-76
2020/12/02 16:33:47;;;;;;;48.47;22.02;;;;;;;;;;8267481;28;20419;-76
2020/12/02 16:37:57;;;;;;;96.80;38.00;;;;;;;;;;8255668;28;20075;-76
2020/12/02 16:42:27;;;;;;;91.75;35.58;;;;;;;;;;8242768;28;20489;-76
2020/12/02 16:46:59;;;;;;;37.05;19.02;;;;;;;;;;8265315;28;20375;-77
2020/12/02 16:51:49;;;;;;;80.28;32.30;;;;;;;;;;8304288;28;20474;-77
2020/12/02 16:56:22;;;;;;;35.03;16.75;;;;;;;;;;8300155;28;20471;-77
2020/12/02 17:00:31;;;;;;;49.50;20.38;;;;;;;;;;8288449;28;20055;-76
2020/12/02 17:04:37;;;;;;;97.85;36.47;;;;;;;;;;8309194;28;20048;-77
2020/12/02 17:08:40;;;;;;;138.95;41.90;;;;;;;;;;8311310;28;20052;-77
2020/12/02 17:13:25;;;;;;;66.43;26.92;;;;;;;;;;8307307;28;20455;-77
2020/12/02 17:17:45;;;;;;;141.48;51.28;;;;;;;;;;8228197;28;20048;-76
2020/12/02 17:22:32;;;;;;;54.47;23.60;;;;;;;;;;8238576;28;20434;-77
2020/12/02 17:26:58;;;;;;;77.95;30.75;;;;;;;;;;8271513;28;20477;-77
2020/12/02 17:31:15;;;;;;;131.85;50.47;;;;;;;;;;8275391;28;20484;-77
2020/12/02 17:35:50;;;;;;;118.22;45.17;;;;;;;;;;8273402;28;20045;-77
2020/12/02 17:40:14;;;;;;;91.20;37.03;;;;;;;;;;8251421;28;20352;-77
2020/12/02 17:45:03;;;;;;;56.20;25.20;;;;;;;;;;8272956;28;20405;-76
2020/12/02 17:49:25;;;;;;;71.38;33.75;;;;;;;;;;8254950;28;20357;-76
2020/12/02 17:53:31;;;;;;;46.70;21.02;;;;;;;;;;8257710;28;20371;-75
2020/12/02 17:57:36;;;;;;;68.75;25.20;;;;;;;;;;8295394;28;20041;-77
2020/12/02 18:02:03;;;;;;;65.47;24.13;;;;;;;;;;8310593;28;20418;-76
2020/12/02 18:06:30;;;;;;;48.83;21.38;;;;;;;;;;8294788;28;20372;-77
2020/12/02 18:10:54;;;;;;;67.13;29.83;;;;;;;;;;8310488;28;20055;-77
2020/12/02 18:15:30;;;;;;;45.10;20.30;;;;;;;;;;8234384;28;20164;-77
2020/12/02 18:19:37;;;;;;;56.03;23.17;;;;;;;;;;8181447;28;20049;-77
2020/12/02 18:24:09;;;;;;;55.90;25.67;;;;;;;;;;8240838;28;20475;-77
2020/12/02 18:28:49;;;;;;;62.80;29.42;;;;;;;;;;8297201;28;20045;-76
2020/12/02 18:33:19;;;;;;;288.13;100.47;;;;;;;;;;8272707;28;20459;-77
2020/12/02 18:38:01;;;;;;;180.80;83.13;;;;;;;;;;8286803;28;20049;-77
2020/12/02 18:42:16;;;;;;;893.25;280.77;;;;;;;;;;8195047;28;20501;-77
2020/12/02 18:46:39;;;;;;;1192.63;345.15;;;;;;;;;;8312477;28;20049;-77
2020/12/02 18:50:43;;;;;;;637.08;152.10;;;;;;;;;;8304432;28;20383;-77
2020/12/02 18:54:47;;;;;;;810.65;193.98;;;;;;;;;;8276812;28;20497;-76
2020/12/02 18:59:05;;;;;;;1247.93;276.30;;;;;;;;;;8301992;28;20049;-77
2020/12/02 19:03:20;;;;;;;1008.33;218.45;;;;;;;;;;8292856;28;20045;-76
2020/12/02 19:07:31;;;;;;;552.00;125.13;;;;;;;;;;8303131;28;20494;-76
2020/12/02 19:11:58;;;;;;;1437.90;285.17;;;;;;;;;;8302932;28;20379;-77
2020/12/02 19:16:08;;;;;;;524.65;104.43;;;;;;;;;;8260257;28;20049;-77
2020/12/02 19:20:44;;;;;;;593.42;108.13;;;;;;;;;;8237587;28;20383;-77
2020/12/02 19:25:06;;;;;;;1621.10;321.33;;;;;;;;;;8300457;28;20477;-77
2020/12/02 19:29:38;;;;;;;723.38;142.02;;;;;;;;;;8296712;28;20463;-76
2020/12/02 19:34:10;;;;;;;1018.55;203.43;;;;;;;;;;8266963;28;20407;-76
2020/12/02 19:38:22;;;;;;;1578.43;313.58;;;;;;;;;;8264269;28;20472;-76
2020/12/02 19:43:12;;;;;;;1444.93;300.92;;;;;;;;;;8263941;28;20480;-77
2020/12/02 19:47:28;;;;;;;847.70;171.98;;;;;;;;;;8235418;28;20079;-75
2020/12/02 19:51:45;;;;;;;546.72;111.50;;;;;;;;;;8261556;28;20502;-76
2020/12/02 19:56:01;;;;;;;799.72;167.43;;;;;;;;;;8263225;28;20498;-76
2020/12/02 20:00:28;;;;;;;373.25;78.03;;;;;;;;;;8260679;28;20037;-76
2020/12/02 20:05:03;;;;;;;1523.40;323.67;;;;;;;;;;8219787;28;20055;-76
2020/12/02 20:09:54;;;;;;;1021.53;233.48;;;;;;;;;;8279829;28;20372;-77
2020/12/02 20:14:37;;;;;;;776.78;172.00;;;;;;;;;;8275451;28;20361;-77
2020/12/02 20:19:41;;;;;;;791.10;173.38;;;;;;;;;;8260808;28;20071;-76
2020/12/02 20:24:19;;;;;;;121.90;39.22;;;;;;;;;;8266245;28;20471;-76
2020/12/02 20:28:27;;;;;;;548.40;120.90;;;;;;;;;;8281544;28;20043;-76
2020/12/02 20:32:39;;;;;;;494.23;111.85;;;;;;;;;;8280500;28;20403;-76
2020/12/02 20:36:49;;;;;;;437.20;102.32;;;;;;;;;;8282728;28;20480;-77
2020/12/02 20:40:55;;;;;;;406.35;95.22;;;;;;;;;;8282950;28;20387;-77
2020/12/02 20:45:01;;;;;;;258.35;66.38;;;;;;;;;;8283674;28;20406;-77
2020/12/02 20:49:12;;;;;;;90.10;29.92;;;;;;;;;;8282798;28;20375;-77
2020/12/02 20:53:35;;;;;;;69.03;26.17;;;;;;;;;;8332314;28;20378;-77
2020/12/02 20:57:59;;;;;;;99.97;33.60;;;;;;;;;;8295986;28;20494;-77
2020/12/02 21:02:13;;;;;;;299.58;75.63;;;;;;;;;;8286351;28;20376;-77
2020/12/02 21:06:17;;;;;;;176.57;52.45;;;;;;;;;;8285967;28;20513;-77
2020/12/02 21:10:22;;;;;;;175.15;51.67;;;;;;;;;;8288364;28;20071;-76
2020/12/02 21:14:25;;;;;;;219.27;65.82;;;;;;;;;;8289192;28;20047;-77
2020/12/02 21:18:57;;;;;;;289.10;70.82;;;;;;;;;;8287056;28;20475;-77
2020/12/02 21:24:05;;;;;;;268.08;61.90;;;;;;;;;;8303039;28;20463;-77
2020/12/02 21:28:19;;;;;;;73.43;28.75;;;;;;;;;;8309449;28;20052;-77
2020/12/02 21:32:38;;;;;;;211.30;78.63;;;;;;;;;;8317898;28;20094;-77
2020/12/02 21:37:27;;;;;;;196.23;63.50;;;;;;;;;;8265624;28;20360;-76
2020/12/02 21:41:48;;;;;;;176.60;56.83;;;;;;;;;;8324453;27;21100;-76
2020/12/02 21:46:17;;;;;;;72.45;26.35;;;;;;;;;;8288051;28;20380;-76
2020/12/02 21:51:10;;;;;;;238.20;73.22;;;;;;;;;;8391684;27;20533;-76
2020/12/02 21:56:06;;;;;;;85.00;32.33;;;;;;;;;;8353827;28;20079;-75
2020/12/02 22:00:27;;;;;;;77.40;26.25;;;;;;;;;;8355065;28;20373;-76
2020/12/02 22:05:17;;;;;;;68.20;23.90;;;;;;;;;;8353971;28;20048;-75
2020/12/02 22:09:47;;;;;;;141.63;41.15;;;;;;;;;;8336860;28;20470;-76
2020/12/02 22:14:30;;;;;;;138.65;47.13;;;;;;;;;;8338979;28;20363;-77
2020/12/02 22:19:13;;;;;;;80.70;29.77;;;;;;;;;;8356116;28;20512;-75
2020/12/02 22:23:31;;;;;;;86.55;28.20;;;;;;;;;;8339053;28;20378;-76
2020/12/02 22:27:34;;;;;;;94.07;32.13;;;;;;;;;;8384748;28;20058;-77
2020/12/02 22:31:59;;;;;;;65.55;27.60;;;;;;;;;;8384415;28;20058;-77
2020/12/02 22:36:38;;;;;;;154.07;49.03;;;;;;;;;;8385703;28;20048;-77
2020/12/02 22:41:07;;;;;;;73.57;26.73;;;;;;;;;;8382965;28;20528;-77
2020/12/02 22:45:33;;;;;;;64.53;23.45;;;;;;;;;;8383826;28;20058;-76
2020/12/02 22:49:41;;;;;;;66.68;25.38;;;;;;;;;;8383857;28;20385;-77
2020/12/02 22:53:53;;;;;;;70.03;29.80;;;;;;;;;;8380134;28;20040;-77
2020/12/02 22:57:58;;;;;;;68.97;29.98;;;;;;;;;;8357843;28;20382;-77
2020/12/02 23:02:07;;;;;;;60.50;22.27;;;;;;;;;;8353425;28;20463;-77
2020/12/02 23:06:56;;;;;;;54.75;21.67;;;;;;;;;;8333825;28;20074;-77
2020/12/02 23:10:59;;;;;;;59.03;22.25;;;;;;;;;;8355637;28;20482;-77
2020/12/02 23:15:23;;;;;;;63.00;23.35;;;;;;;;;;8356018;28;20409;-77
2020/12/02 23:19:40;;;;;;;56.80;22.45;;;;;;;;;;8333443;28;20496;-77
2020/12/02 23:23:48;;;;;;;56.38;22.25;;;;;;;;;;8339519;28;20058;-77
2020/12/02 23:28:34;;;;;;;50.35;20.75;;;;;;;;;;8350100;28;20482;-77
2020/12/02 23:32:58;;;;;;;55.30;21.52;;;;;;;;;;8349642;28;20074;-77
2020/12/02 23:37:02;;;;;;;59.03;24.35;;;;;;;;;;8343290;28;20383;-77
2020/12/02 23:41:06;;;;;;;104.22;42.60;;;;;;;;;;8329138;28;20416;-77
2020/12/02 23:45:25;;;;;;;53.70;23.95;;;;;;;;;;8337566;28;20496;-77
2020/12/02 23:50:01;;;;;;;105.00;49.80;;;;;;;;;;8348421;28;20056;-77
2020/12/02 23:54:04;;;;;;;73.63;30.65;;;;;;;;;;8337190;28;20164;-76
2020/12/02 23:58:33;;;;;;;95.10;41.10;;;;;;;;;;8328654;28;20378;-76
